Time;durP1;ratioP1;P1;durP2;ratioP2;P2;SDS_P1;SDS_P2;PMS_P1;PMS_P2;Temp;Humidity;BMP_temperature;BMP_pressure;BME280_temperature;BME280_humidity;BME280_pressure;Samples;Min_cycle;Max_cycle;Signal;HPM_P1;HPM_P2
2022/05/02 00:00:34;;;;;;;5.75;3.37;;;;;;;5.89;61.92;100783.63;1640891;86;21470;-75
2022/05/02 00:03:00;;;;;;;6.50;3.12;;;;;;;5.87;61.91;100781.52;1640474;85;21270;-74
2022/05/02 00:05:27;;;;;;;6.15;3.33;;;;;;;5.85;62.04;100789.09;1646668;85;21119;-74
2022/05/02 00:07:54;;;;;;;6.83;3.60;;;;;;;5.80;62.10;100784.12;1673415;84;21780;-74
2022/05/02 00:10:22;;;;;;;6.37;3.67;;;;;;;5.72;62.19;100791.06;1645920;85;21060;-74
2022/05/02 00:12:49;;;;;;;7.37;4.15;;;;;;;5.68;62.35;100784.73;1634364;86;21024;-74
2022/05/02 00:15:17;;;;;;;6.92;4.03;;;;;;;5.64;62.50;100780.59;1672211;85;21095;-74
2022/05/02 00:17:57;;;;;;;5.60;3.75;;;;;;;5.62;62.55;100780.69;1678618;84;21057;-74
2022/05/02 00:20:32;;;;;;;5.40;3.50;;;;;;;5.58;62.64;100788.30;1652314;85;21707;-76
2022/05/02 00:23:04;;;;;;;6.30;4.10;;;;;;;5.55;62.87;100792.87;1639453;87;21536;-76
2022/05/02 00:25:32;;;;;;;5.47;3.65;;;;;;;5.48;63.04;100788.86;1618596;87;21024;-75
2022/05/02 00:27:59;;;;;;;6.80;3.80;;;;;;;5.44;63.17;100784.26;1672860;84;21960;-75
2022/05/02 00:30:26;;;;;;;10.25;3.55;;;;;;;5.39;63.29;100781.86;1667483;84;21075;-76
2022/05/02 00:32:54;;;;;;;6.22;3.50;;;;;;;5.35;63.44;100784.73;1656764;84;21621;-76
2022/05/02 00:35:21;;;;;;;5.53;3.20;;;;;;;5.32;63.51;100786.20;1665064;83;21028;-73
2022/05/02 00:37:49;;;;;;;6.15;3.92;;;;;;;5.29;63.60;100779.79;1675991;84;21096;-72
2022/05/02 00:40:17;;;;;;;6.97;3.87;;;;;;;5.26;63.71;100785.20;1669779;84;21088;-74
2022/05/02 00:42:45;;;;;;;6.95;4.08;;;;;;;5.23;63.81;100782.74;1660127;85;21483;-74
2022/05/02 00:45:14;;;;;;;6.58;3.50;;;;;;;5.21;63.87;100785.45;1675813;84;21830;-74
2022/05/02 00:47:40;;;;;;;5.28;3.67;;;;;;;5.18;63.89;100788.20;1677656;84;20954;-74
2022/05/02 00:50:09;;;;;;;6.80;3.50;;;;;;;5.11;64.01;100785.03;1693295;83;21023;-74
2022/05/02 00:52:38;;;;;;;6.20;3.60;;;;;;;5.06;64.10;100780.97;1676632;84;21068;-74
2022/05/02 00:55:05;;;;;;;8.03;3.52;;;;;;;5.05;64.18;100787.13;1676086;84;21484;-75
2022/05/02 00:57:33;;;;;;;5.17;3.65;;;;;;;5.06;64.15;100791.44;1678376;84;22522;-75
2022/05/02 01:00:00;;;;;;;5.55;3.37;;;;;;;5.06;64.11;100787.05;1668509;84;21617;-74
2022/05/02 01:02:26;;;;;;;7.30;3.50;;;;;;;5.07;64.03;100788.73;1639138;85;21111;-74
2022/05/02 01:04:53;;;;;;;9.45;3.80;;;;;;;5.05;64.05;100782.73;1665769;84;21083;-74
2022/05/02 01:07:19;;;;;;;4.47;3.30;;;;;;;5.04;64.19;100786.75;1678295;84;21029;-74
2022/05/02 01:09:51;;;;;;;4.70;2.98;;;;;;;5.00;64.32;100782.10;1670643;84;22955;-73
2022/05/02 01:12:27;;;;;;;7.25;3.00;;;;;;;4.97;64.44;100790.12;1655032;85;21413;-74
2022/05/02 01:14:56;;;;;;;7.05;3.52;;;;;;;4.98;64.57;100787.03;1655513;85;21102;-75
2022/05/02 01:17:24;;;;;;;7.85;3.50;;;;;;;4.99;64.65;100790.03;1633303;85;21606;-75
2022/05/02 01:19:50;;;;;;;6.72;3.52;;;;;;;5.01;64.56;100784.26;1600975;88;21491;-75
2022/05/02 01:22:17;;;;;;;5.95;3.50;;;;;;;5.01;64.51;100784.26;1610348;88;22845;-74
2022/05/02 01:24:46;;;;;;;6.12;3.55;;;;;;;5.02;64.50;100786.83;1628790;86;21017;-75
2022/05/02 01:27:13;;;;;;;8.23;3.45;;;;;;;5.01;64.55;100775.94;1607056;87;21041;-74
2022/05/02 01:29:42;;;;;;;4.58;3.02;;;;;;;4.98;64.60;100778.72;1662695;84;21363;-74
2022/05/02 01:32:12;;;;;;;6.33;3.67;;;;;;;4.94;64.62;100772.42;1685193;84;21472;-75
2022/05/02 01:34:45;;;;;;;6.28;3.70;;;;;;;4.89;64.59;100777.41;1659361;84;22540;-74
2022/05/02 01:37:14;;;;;;;4.70;3.40;;;;;;;4.86;64.64;100778.03;1659546;84;20998;-73
2022/05/02 01:39:41;;;;;;;5.60;3.60;;;;;;;4.84;64.67;100774.19;1642184;85;21324;-73
2022/05/02 01:42:11;;;;;;;5.92;3.45;;;;;;;4.82;64.74;100775.16;1636816;86;21424;-75
2022/05/02 01:44:37;;;;;;;5.20;3.40;;;;;;;4.81;64.72;100776.08;1628565;86;21003;-75
2022/05/02 01:47:05;;;;;;;6.92;3.67;;;;;;;4.80;64.57;100774.39;1624139;86;22326;-75
2022/05/02 01:49:31;;;;;;;8.53;3.60;;;;;;;4.78;64.52;100774.47;1606818;86;21135;-75
2022/05/02 01:51:58;;;;;;;5.50;3.60;;;;;;;4.74;64.60;100767.70;1597253;88;21111;-74
2022/05/02 01:54:27;;;;;;;6.25;3.52;;;;;;;4.72;64.64;100766.91;1665397;85;21030;-76
2022/05/02 01:56:55;;;;;;;5.22;3.22;;;;;;;4.72;64.73;100768.68;1661863;83;21104;-75
2022/05/02 01:59:22;;;;;;;9.70;3.62;;;;;;;4.72;64.86;100767.38;1641032;83;21876;-75
2022/05/02 02:01:49;;;;;;;5.58;3.40;;;;;;;4.73;64.93;100772.98;1648823;86;21146;-75
2022/05/02 02:07:00;;;;;;;7.33;3.90;;;;;;;4.74;65.01;100777.33;1648669;84;21436;-73
2022/05/02 02:09:27;;;;;;;6.50;3.98;;;;;;;4.76;64.93;100778.09;1678619;84;21516;-73
2022/05/02 02:11:55;;;;;;;6.58;3.60;;;;;;;4.76;64.79;100776.33;1653114;83;23442;-73
2022/05/02 02:14:22;;;;;;;6.67;4.00;;;;;;;4.74;64.80;100777.33;1618773;86;21032;-75
2022/05/02 02:16:49;;;;;;;8.28;4.47;;;;;;;4.69;64.80;100775.38;1627327;86;21052;-73
2022/05/02 02:19:16;;;;;;;8.38;5.00;;;;;;;4.65;64.88;100776.47;1636200;86;21851;-74
2022/05/02 02:21:43;;;;;;;10.00;5.92;;;;;;;4.60;64.96;100772.28;1604730;88;21153;-73
2022/05/02 02:24:10;;;;;;;14.63;6.17;;;;;;;4.58;65.03;100772.83;1607091;87;22323;-73
2022/05/02 02:26:39;;;;;;;13.78;6.67;;;;;;;4.59;64.99;100776.29;1676345;83;21088;-73
2022/05/02 02:29:07;;;;;;;13.78;6.97;;;;;;;4.58;65.00;100771.98;1655137;84;21025;-74
2022/05/02 02:31:34;;;;;;;13.30;6.40;;;;;;;4.57;64.90;100775.06;1664951;84;21052;-74
2022/05/02 02:34:00;;;;;;;8.88;4.55;;;;;;;4.57;64.80;100775.52;1680557;83;21028;-74
2022/05/02 02:36:27;;;;;;;8.83;4.60;;;;;;;4.55;64.78;100783.45;1670760;84;21698;-74
2022/05/02 02:38:53;;;;;;;8.58;4.78;;;;;;;4.52;64.76;100777.49;1621072;86;21020;-75
2022/05/02 02:41:20;;;;;;;11.15;5.70;;;;;;;4.50;64.84;100775.42;1619495;87;21016;-75
2022/05/02 02:43:46;;;;;;;9.58;5.65;;;;;;;4.50;64.90;100778.03;1610066;88;21257;-75
2022/05/02 02:46:13;;;;;;;7.83;4.83;;;;;;;4.51;64.85;100773.19;1610005;87;21070;-74
2022/05/02 02:48:40;;;;;;;8.63;5.08;;;;;;;4.51;64.81;100770.11;1598253;87;21925;-74
2022/05/02 02:51:07;;;;;;;7.90;4.95;;;;;;;4.51;64.89;100773.19;1684393;84;21055;-74
2022/05/02 02:53:34;;;;;;;11.12;4.90;;;;;;;4.51;64.89;100771.88;1678250;83;20984;-74
2022/05/02 02:56:00;;;;;;;9.68;4.80;;;;;;;4.51;64.91;100775.80;1652566;84;21072;-74
2022/05/02 02:58:27;;;;;;;7.17;5.33;;;;;;;4.53;64.94;100783.11;1670124;84;21491;-74
2022/05/02 03:00:53;;;;;;;9.28;5.33;;;;;;;4.53;64.98;100774.80;1647364;84;21523;-74
2022/05/02 03:03:20;;;;;;;9.43;5.80;;;;;;;4.52;65.16;100777.49;1629118;85;21032;-74
2022/05/02 03:06:01;;;;;;;8.45;5.75;;;;;;;4.51;65.30;100775.34;1644322;84;21114;-74
2022/05/02 03:08:30;;;;;;;11.48;5.90;;;;;;;4.49;65.41;100775.88;1621080;86;21303;-75
2022/05/02 03:10:57;;;;;;;9.20;6.17;;;;;;;4.46;65.56;100773.42;1649563;85;21040;-75
2022/05/02 03:13:25;;;;;;;10.00;6.25;;;;;;;4.47;65.66;100775.58;1693939;83;22657;-74
2022/05/02 03:15:51;;;;;;;8.43;5.67;;;;;;;4.47;65.85;100771.66;1681345;83;21238;-75
2022/05/02 03:18:18;;;;;;;16.65;7.45;;;;;;;4.49;65.89;100777.66;1676498;84;21157;-75
2022/05/02 03:20:45;;;;;;;13.98;8.08;;;;;;;4.53;65.90;100769.56;1659404;84;21099;-74
2022/05/02 03:23:11;;;;;;;12.47;7.75;;;;;;;4.60;65.83;100770.98;1686397;83;21126;-75
2022/05/02 03:25:37;;;;;;;10.55;6.95;;;;;;;4.65;65.82;100776.47;1685013;83;22425;-74
2022/05/02 03:28:05;;;;;;;11.33;7.60;;;;;;;4.68;65.92;100778.46;1679532;84;21542;-75
2022/05/02 03:30:31;;;;;;;16.75;9.13;;;;;;;4.73;65.91;100776.48;1670029;84;21074;-74
2022/05/02 03:32:58;;;;;;;18.05;11.43;;;;;;;4.79;65.81;100781.86;1671881;84;21031;-74
2022/05/02 03:35:25;;;;;;;24.45;12.75;;;;;;;4.85;65.67;100778.95;1682408;84;21376;-74
2022/05/02 03:37:52;;;;;;;23.35;12.47;;;;;;;4.91;65.48;100783.02;1609874;87;22644;-73
2022/05/02 03:40:19;;;;;;;21.27;12.33;;;;;;;4.97;65.28;100787.50;1630082;87;21076;-74
2022/05/02 03:42:45;;;;;;;23.83;13.08;;;;;;;5.04;65.19;100785.44;1634633;86;21119;-74
2022/05/02 03:45:12;;;;;;;24.50;13.10;;;;;;;5.12;65.00;100788.06;1678655;83;20952;-74
2022/05/02 03:47:38;;;;;;;21.05;13.32;;;;;;;5.23;64.81;100790.59;1631608;86;21071;-75
2022/05/02 03:50:06;;;;;;;20.48;13.00;;;;;;;5.31;64.67;100789.75;1622103;87;21850;-75
2022/05/02 03:52:33;;;;;;;21.55;12.28;;;;;;;5.37;64.58;100788.95;1622939;86;21567;-75
2022/05/02 03:54:59;;;;;;;23.77;12.05;;;;;;;5.44;64.46;100786.41;1666158;85;21162;-76
2022/05/02 03:57:26;;;;;;;21.42;12.15;;;;;;;5.56;64.24;100790.63;1658408;85;21043;-76
2022/05/02 03:59:52;;;;;;;20.65;12.55;;;;;;;5.64;64.05;100794.55;1678172;84;21575;-75
2022/05/02 04:02:19;;;;;;;21.35;11.88;;;;;;;5.73;63.78;100790.60;1665790;84;22383;-74
2022/05/02 04:04:46;;;;;;;20.92;11.97;;;;;;;5.82;63.58;100784.88;1670739;83;20992;-74
2022/05/02 04:07:13;;;;;;;17.32;11.63;;;;;;;5.91;63.44;100785.73;1667846;84;21075;-74
2022/05/02 04:09:40;;;;;;;22.35;12.00;;;;;;;6.00;63.26;100783.92;1666319;84;21052;-74
2022/05/02 04:12:08;;;;;;;21.93;11.53;;;;;;;6.10;63.06;100788.21;1659161;84;21031;-73
2022/05/02 04:14:35;;;;;;;18.35;10.75;;;;;;;6.19;62.88;100788.17;1669359;84;21826;-73
2022/05/02 04:17:03;;;;;;;18.37;11.22;;;;;;;6.28;62.87;100786.36;1657957;85;21012;-74
2022/05/02 04:19:29;;;;;;;16.55;10.68;;;;;;;6.39;62.88;100787.08;1664377;84;21030;-73
2022/05/02 04:21:55;;;;;;;18.87;9.83;;;;;;;6.50;62.80;100791.27;1646676;84;21692;-76
2022/05/02 04:24:22;;;;;;;17.25;10.65;;;;;;;6.59;62.67;100785.03;1656062;85;21059;-79
2022/05/02 04:26:49;;;;;;;15.23;9.88;;;;;;;6.71;62.61;100787.42;1685539;84;22510;-75
2022/05/02 04:29:15;;;;;;;17.25;11.03;;;;;;;6.82;62.56;100792.06;1658017;84;21704;-74
2022/05/02 04:31:43;;;;;;;18.37;10.98;;;;;;;6.93;62.61;100788.34;1661617;84;21102;-75
2022/05/02 04:34:09;;;;;;;17.55;10.90;;;;;;;7.05;62.64;100794.23;1676939;84;21299;-75
2022/05/02 04:36:36;;;;;;;21.25;12.10;;;;;;;7.20;62.70;100790.31;1644268;84;21071;-76
2022/05/02 04:39:04;;;;;;;24.35;11.90;;;;;;;7.34;62.62;100795.62;1669042;84;21040;-76
2022/05/02 04:41:31;;;;;;;26.95;11.88;;;;;;;7.48;62.45;100793.00;1678326;84;21040;-74
2022/05/02 04:43:58;;;;;;;23.27;12.05;;;;;;;7.62;62.28;100785.11;1684101;84;21072;-75
2022/05/02 04:46:24;;;;;;;16.95;11.57;;;;;;;7.74;62.05;100784.39;1683016;83;21016;-75
2022/05/02 04:48:50;;;;;;;17.45;11.55;;;;;;;7.88;61.74;100788.79;1608333;88;21029;-77
2022/05/02 04:51:17;;;;;;;19.75;11.95;;;;;;;8.02;61.52;100786.64;1635085;86;21777;-76
2022/05/02 04:53:44;;;;;;;17.75;11.75;;;;;;;8.17;61.28;100787.45;1637238;85;21031;-79
2022/05/02 04:56:11;;;;;;;16.65;11.35;;;;;;;8.30;61.02;100777.86;1671418;84;21138;-78
2022/05/02 04:58:38;;;;;;;19.73;11.95;;;;;;;8.43;60.72;100781.42;1686380;83;21056;-77
2022/05/02 05:01:07;;;;;;;17.98;12.00;;;;;;;8.58;60.53;100778.27;1649433;85;21070;-77
2022/05/02 05:03:35;;;;;;;17.32;11.08;;;;;;;8.72;60.37;100777.38;1643355;85;22028;-77
2022/05/02 05:06:03;;;;;;;29.77;20.50;;;;;;;8.88;60.18;100779.39;1679124;83;22353;-76
2022/05/02 05:08:29;;;;;;;24.07;12.18;;;;;;;9.05;60.10;100776.46;1666575;84;21054;-77
2022/05/02 05:11:14;;;;;;;18.95;10.20;;;;;;;9.24;60.14;100780.50;1658528;83;21044;-75
2022/05/02 05:17:50;;;;;;;14.00;9.65;;;;;;;9.61;59.43;100778.38;1676696;83;21983;-73
2022/05/02 05:20:48;;;;;;;15.13;9.65;;;;;;;9.85;58.85;100775.00;1650826;85;21107;-78
2022/05/02 05:23:33;;;;;;;15.65;8.73;;;;;;;10.14;58.30;100767.19;1682504;84;21012;-73
2022/05/02 05:26:17;;;;;;;12.07;7.90;;;;;;;10.41;57.74;100771.45;1645753;85;21543;-73
2022/05/02 05:29:20;;;;;;;13.90;7.90;;;;;;;10.65;57.20;100772.80;1661765;85;21087;-75
2022/05/02 05:32:18;;;;;;;11.93;7.45;;;;;;;10.88;56.45;100770.13;1622250;87;22268;-73
2022/05/02 05:35:08;;;;;;;15.38;7.83;;;;;;;11.12;55.87;100759.53;1617727;87;21203;-75
2022/05/02 05:37:48;;;;;;;12.70;7.45;;;;;;;11.39;54.97;100766.34;1615891;86;21035;-75
2022/05/02 05:40:42;;;;;;;12.15;8.10;;;;;;;11.60;53.84;100764.68;1661197;85;21521;-74
2022/05/02 05:43:39;;;;;;;18.95;8.38;;;;;;;11.74;53.25;100767.08;1664414;84;22216;-74
2022/05/02 05:46:42;;;;;;;17.42;7.67;;;;;;;11.89;52.19;100766.89;1670469;84;21833;-76
2022/05/02 05:49:48;;;;;;;14.78;6.85;;;;;;;12.03;51.29;100768.80;1682549;85;21054;-75
2022/05/02 05:52:57;;;;;;;19.15;7.75;;;;;;;12.16;50.02;100767.81;1629027;85;21232;-75
2022/05/02 05:56:09;;;;;;;15.58;7.22;;;;;;;12.30;49.51;100768.89;1685931;84;21618;-75
2022/05/02 05:58:59;;;;;;;18.50;7.85;;;;;;;12.44;48.90;100769.09;1634637;86;21073;-75
2022/05/02 06:01:48;;;;;;;14.38;6.60;;;;;;;12.59;48.40;100774.00;1620400;86;21957;-76
2022/05/02 06:04:14;;;;;;;11.85;5.83;;;;;;;12.76;47.95;100773.11;1642440;86;21535;-75
2022/05/02 06:06:40;;;;;;;13.13;6.20;;;;;;;12.90;46.96;100775.45;1632804;86;21535;-76
2022/05/02 06:09:07;;;;;;;10.65;6.12;;;;;;;13.07;46.07;100772.73;1671939;85;21502;-76
2022/05/02 06:11:34;;;;;;;11.68;6.00;;;;;;;13.24;45.07;100772.69;1663472;85;21083;-76
2022/05/02 06:14:02;;;;;;;13.25;6.80;;;;;;;13.40;44.76;100777.03;1663859;85;21795;-75
2022/05/02 06:19:17;;;;;;;18.82;7.50;;;;;;;13.66;44.45;100779.64;1667369;84;21058;-76
2022/05/02 06:21:44;;;;;;;19.73;7.30;;;;;;;13.79;44.32;100777.24;1665748;84;21039;-77
2022/05/02 06:24:13;;;;;;;15.45;6.75;;;;;;;13.88;43.99;100773.30;1623940;86;21502;-77
2022/05/02 06:26:42;;;;;;;24.35;9.13;;;;;;;14.00;44.56;100774.92;1665019;85;21978;-77
2022/05/02 06:29:09;;;;;;;17.10;7.22;;;;;;;14.09;43.95;100777.26;1671850;85;21654;-77
2022/05/02 06:31:37;;;;;;;18.95;8.70;;;;;;;14.17;44.41;100773.91;1671905;85;20999;-77
2022/05/02 06:34:04;;;;;;;22.58;9.63;;;;;;;14.28;45.09;100773.33;1662169;85;21093;-77
2022/05/02 06:36:59;;;;;;;28.15;10.60;;;;;;;14.43;45.72;100772.44;1672837;84;21542;-77
2022/05/02 06:39:58;;;;;;;40.55;13.68;;;;;;;14.60;46.27;100776.29;1665528;84;22157;-77
2022/05/02 06:42:46;;;;;;;43.98;14.65;;;;;;;14.79;45.28;100775.47;1674689;84;21077;-76
2022/05/02 06:45:53;;;;;;;58.15;17.85;;;;;;;14.95;44.75;100766.91;1632639;86;21038;-77
2022/05/02 06:48:33;;;;;;;54.48;18.30;;;;;;;15.06;44.28;100773.45;1675779;83;21111;-77
2022/05/02 06:51:06;;;;;;;53.95;18.77;;;;;;;15.16;44.30;100767.62;1670383;83;21023;-77
2022/05/02 06:53:57;;;;;;;56.55;19.02;;;;;;;15.28;43.51;100769.63;1671113;83;21854;-77
2022/05/02 06:56:44;;;;;;;61.10;19.75;;;;;;;15.38;44.04;100769.97;1652224;84;21035;-77
2022/05/02 06:59:26;;;;;;;60.12;19.70;;;;;;;15.45;43.60;100768.41;1670027;83;21522;-78
2022/05/02 07:02:13;;;;;;;59.88;19.82;;;;;;;15.55;43.22;100772.87;1635235;85;21114;-76
2022/05/02 16:57:47;;;;;;;4.62;2.10;;;;;;;18.63;27.72;100388.63;1646092;84;21588;-72
2022/05/02 17:00:33;;;;;;;6.67;1.90;;;;;;;18.44;28.18;100391.71;1577901;88;21073;-74
2022/05/02 17:02:58;;;;;;;;;;;;;;;18.28;28.92;100384.05;1606210;86;21125;-76
2022/05/02 17:05:34;;;;;;;7.30;1.90;;;;;;;18.08;29.88;100389.95;1642417;83;21277;-77
2022/05/02 17:08:02;;;;;;;3.90;2.00;;;;;;;17.83;30.55;100388.64;1626672;83;21131;-78
2022/05/02 17:13:34;;;;;;;5.60;2.50;;;;;;;17.44;31.64;100395.95;1628702;82;21188;-70
2022/05/02 17:16:12;;;;;;;6.80;3.42;;;;;;;17.23;32.33;100392.09;1638520;85;21190;-69
2022/05/02 17:19:08;;;;;;;7.58;4.00;;;;;;;17.04;32.70;100397.22;1624133;86;21103;-71
2022/05/02 17:21:48;;;;;;;9.73;4.33;;;;;;;16.86;33.00;100394.66;1629503;85;21068;-68
2022/05/02 17:24:17;;;;;;;10.43;5.30;;;;;;;16.61;33.59;100388.39;1644625;83;21876;-69
2022/05/02 17:26:47;;;;;;;12.33;5.40;;;;;;;16.40;34.07;100395.93;1647526;83;21115;-69
2022/05/02 17:29:20;;;;;;;12.95;5.83;;;;;;;16.20;34.24;100389.99;1645347;84;21093;-69
2022/05/02 17:31:56;;;;;;;13.13;5.37;;;;;;;16.00;34.60;100403.52;1610349;87;21168;-70
2022/05/02 17:34:25;;;;;;;15.30;6.83;;;;;;;15.81;35.37;100398.39;1637767;86;21166;-68
2022/05/02 17:36:58;;;;;;;14.90;6.97;;;;;;;15.62;36.45;100408.72;1638496;84;22513;-68
2022/05/02 17:39:29;;;;;;;16.55;7.78;;;;;;;15.42;36.69;100412.00;1629490;85;28920;-70
2022/05/02 17:42:04;;;;;;;18.80;7.97;;;;;;;15.22;36.86;100412.30;1625106;84;21104;-69
2022/05/02 17:44:35;;;;;;;17.07;8.43;;;;;;;15.00;36.79;100413.08;1638091;86;21067;-71
2022/05/02 17:47:03;;;;;;;18.67;8.43;;;;;;;14.83;36.82;100417.36;1622453;86;21107;-69
2022/05/02 17:49:36;;;;;;;17.20;8.45;;;;;;;14.72;36.93;100411.41;1638445;86;21952;-72
2022/05/02 17:52:11;;;;;;;21.50;8.35;;;;;;;14.60;36.98;100410.77;1628287;86;21481;-69
2022/05/02 17:54:48;;;;;;;21.07;9.83;;;;;;;14.48;37.23;100410.63;1637675;86;21074;-69
2022/05/02 17:57:21;;;;;;;18.45;9.95;;;;;;;14.37;37.99;100413.41;1645892;86;21456;-69
2022/05/02 18:00:11;;;;;;;21.20;10.68;;;;;;;14.24;38.38;100414.56;1651001;85;21454;-69
2022/05/02 18:02:46;;;;;;;18.05;9.55;;;;;;;14.11;39.11;100423.84;1643060;85;21860;-68
2022/05/02 18:05:27;;;;;;;17.77;8.28;;;;;;;13.98;39.80;100422.31;1645295;85;21162;-68
2022/05/02 18:07:53;;;;;;;15.50;7.40;;;;;;;13.89;39.91;100424.48;1638908;85;21503;-69
2022/05/02 18:10:25;;;;;;;16.40;7.03;;;;;;;13.77;39.88;100422.13;1646198;85;21119;-71
2022/05/02 18:13:06;;;;;;;13.05;6.90;;;;;;;13.69;39.94;100427.65;1638770;85;21136;-68
2022/05/02 18:15:40;;;;;;;15.70;8.23;;;;;;;13.63;39.94;100424.25;1656914;84;21932;-70
2022/05/02 18:18:10;;;;;;;14.90;8.05;;;;;;;13.53;40.55;100427.88;1665735;82;21020;-68
2022/05/02 18:20:39;;;;;;;16.77;8.78;;;;;;;13.43;41.12;100431.38;1613088;86;21595;-67
2022/05/02 18:23:11;;;;;;;22.07;8.98;;;;;;;13.32;41.33;100428.85;1623864;87;21086;-69
2022/05/02 18:25:47;;;;;;;19.10;9.50;;;;;;;13.22;41.30;100424.02;1616776;87;21110;-69
2022/05/02 18:28:24;;;;;;;25.88;11.28;;;;;;;13.15;41.61;100429.48;1608270;86;21948;-68
2022/05/02 18:30:54;;;;;;;21.97;10.10;;;;;;;13.08;41.68;100433.65;1659863;84;21185;-68
2022/05/02 18:33:30;;;;;;;19.07;9.43;;;;;;;12.99;42.20;100433.98;1657406;84;21135;-67
2022/05/02 18:36:02;;;;;;;17.32;8.20;;;;;;;12.93;42.07;100438.97;1652036;84;21500;-66
2022/05/02 18:38:45;;;;;;;18.85;7.08;;;;;;;12.90;41.85;100443.58;1650813;84;21247;-68
2022/05/02 18:41:47;;;;;;;16.25;6.70;;;;;;;12.91;41.05;100436.45;1627184;86;21970;-68
2022/05/02 18:44:19;;;;;;;13.43;6.92;;;;;;;12.97;40.52;100442.56;1667395;85;21436;-71
2022/05/02 18:55:15;;;;;;;12.15;5.92;;;;;;;13.08;40.78;100434.98;1659996;84;22645;-70
2022/05/02 18:58:04;;;;;;;11.45;6.00;;;;;;;13.03;41.12;100438.54;1644330;84;21028;-68
2022/05/02 19:00:33;;;;;;;11.40;5.80;;;;;;;12.95;41.62;100434.40;1650558;84;21022;-68
2022/05/02 19:03:05;;;;;;;11.30;5.42;;;;;;;12.88;41.71;100433.60;1654074;84;21059;-70
2022/05/02 19:05:32;;;;;;;12.40;5.05;;;;;;;12.82;41.95;100428.83;1633529;85;21012;-67
2022/05/02 19:08:00;;;;;;;11.12;5.65;;;;;;;12.78;41.84;100431.89;1614034;84;21955;-68
2022/05/02 19:10:28;;;;;;;9.68;5.55;;;;;;;12.72;41.57;100427.95;1615338;84;21130;-68
2022/05/02 19:12:59;;;;;;;9.73;5.37;;;;;;;12.66;41.89;100427.67;1656710;84;21052;-68
2022/05/02 19:15:30;;;;;;;11.60;5.20;;;;;;;12.59;42.26;100421.58;1625205;84;21083;-68
2022/05/02 19:17:58;;;;;;;12.00;5.53;;;;;;;12.54;41.80;100421.61;1651794;85;21251;-70
2022/05/02 19:20:29;;;;;;;12.30;5.15;;;;;;;12.52;41.36;100420.42;1661892;84;21854;-70
2022/05/02 19:23:31;;;;;;;8.48;5.20;;;;;;;12.52;40.86;100423.56;1619231;86;21082;-72
2022/05/02 19:25:59;;;;;;;8.95;4.85;;;;;;;12.53;41.20;100421.26;1665079;83;21644;-68
2022/05/02 19:28:28;;;;;;;14.75;5.50;;;;;;;12.50;41.19;100421.05;1659806;83;21220;-70
2022/05/02 19:30:55;;;;;;;9.98;4.70;;;;;;;12.45;41.71;100417.11;1650229;85;21131;-69
2022/05/02 19:33:24;;;;;;;7.80;4.90;;;;;;;12.41;41.81;100418.36;1660422;84;21865;-70
2022/05/02 19:39:08;;;;;;;8.30;4.58;;;;;;;12.26;42.19;100415.23;1642151;85;21122;-67
2022/05/02 19:41:50;;;;;;;10.23;4.72;;;;;;;12.15;42.64;100423.23;1664960;84;21087;-68
2022/05/02 19:44:36;;;;;;;9.58;4.53;;;;;;;12.04;43.22;100429.44;1656317;84;21095;-69
2022/05/02 19:47:10;;;;;;;16.12;4.37;;;;;;;11.90;43.59;100422.67;1659882;84;22667;-69
2022/05/02 19:49:40;;;;;;;10.58;4.72;;;;;;;11.76;43.85;100421.13;1613537;86;21152;-68
2022/05/02 19:52:09;;;;;;;10.10;4.30;;;;;;;11.67;43.68;100423.70;1625189;86;21129;-66
2022/05/02 19:54:40;;;;;;;9.18;4.55;;;;;;;11.59;43.19;100436.76;1641074;85;21087;-68
2022/05/02 19:57:07;;;;;;;8.78;4.58;;;;;;;11.54;43.24;100433.16;1619787;86;21135;-67
2022/05/02 19:59:36;;;;;;;10.90;4.35;;;;;;;11.49;43.14;100431.88;1657285;84;21860;-67
2022/05/02 20:02:07;;;;;;;9.85;4.30;;;;;;;11.42;43.32;100432.36;1639895;84;21083;-69
2022/05/02 20:04:34;;;;;;;7.50;4.33;;;;;;;11.39;43.12;100428.66;1647033;84;21529;-66
2022/05/02 20:07:04;;;;;;;8.23;4.60;;;;;;;11.34;43.76;100432.14;1611692;85;21123;-68
2022/05/02 20:09:34;;;;;;;9.38;4.30;;;;;;;11.29;44.12;100427.73;1656371;84;21068;-67
2022/05/02 20:12:03;;;;;;;8.70;4.30;;;;;;;11.21;44.66;100429.31;1636310;85;21834;-68
2022/05/02 20:14:30;;;;;;;7.83;4.22;;;;;;;11.13;45.21;100428.13;1666529;84;21761;-68
2022/05/02 20:16:59;;;;;;;7.65;4.28;;;;;;;11.04;45.44;100429.34;1647725;85;21072;-68
2022/05/02 20:19:26;;;;;;;7.05;4.12;;;;;;;10.93;45.45;100432.85;1649692;85;21529;-68
2022/05/02 20:21:54;;;;;;;8.25;4.30;;;;;;;10.84;45.72;100428.30;1643056;85;21498;-66
2022/05/02 20:24:25;;;;;;;8.75;4.28;;;;;;;10.74;46.21;100425.55;1680551;84;21897;-67
2022/05/02 20:26:53;;;;;;;7.75;4.10;;;;;;;10.63;45.92;100426.87;1636287;85;21161;-69
2022/05/02 20:29:20;;;;;;;7.95;3.90;;;;;;;10.56;45.42;100427.83;1636266;84;21119;-67
2022/05/02 20:37:18;;;;;;;10.00;5.10;;;;;;;10.53;45.67;100420.64;1625229;86;22641;-67
2022/05/02 20:39:45;;;;;;;6.85;4.37;;;;;;;10.49;46.07;100417.86;1634936;86;21537;-67
2022/05/02 20:42:33;;;;;;;14.40;4.80;;;;;;;10.44;46.97;100422.68;1627212;84;21020;-67
2022/05/02 20:45:17;;;;;;;9.45;4.97;;;;;;;10.36;47.15;100422.43;1665378;84;21170;-67
2022/05/02 20:47:58;;;;;;;;;;;;;;;10.28;47.18;100419.90;1621308;86;21103;-67
2022/05/02 20:50:25;;;;;;;10.50;6.03;;;;;;;10.23;47.22;100410.64;1623312;86;22014;-68
2022/05/02 20:52:53;;;;;;;14.35;6.75;;;;;;;10.16;46.98;100412.06;1588321;87;21653;-67
2022/05/02 20:55:21;;;;;;;11.03;5.97;;;;;;;10.10;46.96;100412.52;1607124;88;21115;-67
2022/05/02 20:57:48;;;;;;;13.30;6.20;;;;;;;10.01;47.49;100406.98;1624991;86;21048;-66
2022/05/02 21:00:17;;;;;;;12.53;8.05;;;;;;;9.96;48.11;100407.00;1609175;85;21520;-66
2022/05/02 21:02:48;;;;;;;14.93;8.38;;;;;;;9.91;48.46;100411.77;1658304;84;21893;-67
2022/05/02 21:05:15;;;;;;;13.30;8.60;;;;;;;9.87;48.01;100407.22;1599637;87;21050;-66
2022/05/02 21:07:41;;;;;;;16.80;9.05;;;;;;;9.86;47.59;100412.12;1638057;85;21077;-67
2022/05/02 21:10:10;;;;;;;16.02;8.60;;;;;;;9.89;47.83;100407.93;1617957;84;21489;-69
2022/05/02 21:13:04;;;;;;;16.93;8.90;;;;;;;9.87;47.73;100407.69;1612437;86;21139;-69
2022/05/02 21:15:53;;;;;;;20.17;9.15;;;;;;;9.85;47.91;100403.02;1639871;84;21952;-70
2022/05/02 21:18:32;;;;;;;15.43;9.03;;;;;;;9.82;48.03;100405.87;1639066;86;21106;-69
2022/05/02 21:21:10;;;;;;;19.05;10.30;;;;;;;9.77;48.28;100401.44;1605926;87;21099;-67
2022/05/02 21:23:54;;;;;;;23.95;12.15;;;;;;;9.72;48.57;100399.97;1620807;85;21580;-70
2022/05/02 21:26:59;;;;;;;21.57;12.80;;;;;;;9.66;48.56;100402.25;1638994;86;21533;-67
2022/05/02 21:29:44;;;;;;;20.77;12.58;;;;;;;9.61;48.46;100396.46;1638872;84;21964;-66
2022/05/02 21:32:33;;;;;;;21.00;11.68;;;;;;;9.53;48.72;100393.55;1626554;86;21079;-66
2022/05/02 21:35:08;;;;;;;18.05;10.55;;;;;;;9.49;48.93;100395.59;1636449;85;21142;-66
2022/05/02 21:37:38;;;;;;;16.73;9.93;;;;;;;9.50;48.66;100397.74;1645713;84;21201;-66
2022/05/02 21:40:06;;;;;;;18.45;10.28;;;;;;;9.48;48.62;100389.95;1645232;84;21431;-66
2022/05/02 21:42:35;;;;;;;16.07;10.00;;;;;;;9.49;48.47;100387.67;1640983;84;21840;-66
2022/05/02 21:45:04;;;;;;;15.80;9.48;;;;;;;9.51;48.29;100382.28;1648544;85;21071;-67
2022/05/02 21:47:31;;;;;;;12.80;8.65;;;;;;;9.53;48.45;100381.20;1655009;85;20957;-67
2022/05/02 21:49:58;;;;;;;14.78;8.30;;;;;;;9.56;48.18;100376.20;1619422;86;21238;-66
2022/05/02 21:52:24;;;;;;;13.08;7.92;;;;;;;9.56;48.11;100379.68;1667692;84;21116;-66
2022/05/02 21:54:51;;;;;;;13.70;7.60;;;;;;;9.56;47.82;100373.09;1640560;84;21894;-71
2022/05/02 21:57:18;;;;;;;11.90;7.22;;;;;;;9.58;47.56;100371.17;1632914;84;21573;-65
2022/05/02 21:59:44;;;;;;;12.70;7.55;;;;;;;9.61;47.57;100364.81;1652526;84;21074;-67
2022/05/02 22:02:11;;;;;;;10.20;6.90;;;;;;;9.64;48.12;100368.05;1648478;85;21119;-67
2022/05/02 22:04:37;;;;;;;11.00;6.92;;;;;;;9.62;48.07;100362.05;1612830;85;21095;-66
2022/05/02 22:07:04;;;;;;;9.38;6.53;;;;;;;9.64;47.76;100360.14;1666441;85;21820;-66
2022/05/02 22:09:30;;;;;;;12.20;6.70;;;;;;;9.66;47.94;100362.69;1663395;85;21059;-67